createdAt,value
2022-08-26T00:02:15.832Z,25.00
2022-08-26T00:06:20.894Z,25.00
2022-08-26T00:10:22.581Z,25.10
2022-08-26T00:14:30.991Z,25.10
2022-08-26T00:18:29.659Z,25.10
2022-08-26T00:22:33.105Z,25.00
2022-08-26T00:26:34.330Z,25.00
2022-08-26T00:30:36.196Z,24.90
2022-08-26T00:34:37.614Z,24.80
2022-08-26T00:38:38.863Z,24.70
2022-08-26T00:42:40.448Z,24.70
2022-08-26T00:46:47.284Z,24.80
2022-08-26T00:50:52.280Z,24.80
2022-08-26T00:55:09.689Z,24.80
2022-08-26T00:59:13.129Z,24.80
2022-08-26T01:03:18.134Z,24.70
2022-08-26T01:07:20.708Z,24.70
2022-08-26T01:11:24.608Z,24.60
2022-08-26T01:15:30.347Z,24.50
2022-08-26T01:19:40.187Z,24.50
2022-08-26T01:23:45.278Z,24.50
2022-08-26T01:27:46.446Z,24.50
2022-08-26T01:31:54.966Z,24.60
2022-08-26T01:35:56.427Z,24.70
2022-08-26T01:39:58.195Z,24.50
2022-08-26T01:44:01.291Z,24.40
2022-08-26T01:48:06.311Z,24.40
2022-08-26T01:52:09.537Z,24.50
2022-08-26T01:56:14.885Z,24.60
2022-08-26T02:00:16.402Z,24.60
2022-08-26T02:04:27.953Z,24.60
2022-08-26T02:08:42.374Z,24.40
2022-08-26T02:12:43.509Z,24.40
2022-08-26T02:16:48.026Z,24.40
2022-08-26T02:20:51.696Z,24.40
2022-08-26T02:24:59.918Z,24.40
2022-08-26T02:29:11.078Z,24.50
2022-08-26T02:33:13.219Z,24.80
2022-08-26T02:37:14.756Z,24.70
2022-08-26T02:41:17.761Z,24.80
2022-08-26T02:45:23.262Z,24.80
2022-08-26T02:49:24.162Z,24.60
2022-08-26T02:53:25.698Z,24.70
2022-08-26T02:57:27.118Z,24.80
2022-08-26T03:01:31.723Z,24.70
2022-08-26T03:05:34.408Z,24.70
2022-08-26T03:09:35.631Z,24.60
2022-08-26T03:13:37.657Z,24.60
2022-08-26T03:17:38.989Z,24.60
2022-08-26T03:21:40.817Z,24.50
2022-08-26T03:25:42.366Z,24.50
2022-08-26T03:30:02.539Z,24.60
2022-08-26T03:34:04.082Z,24.70
2022-08-26T03:38:07.489Z,24.60
2022-08-26T03:42:08.846Z,24.60
2022-08-26T03:46:12.110Z,24.40
2022-08-26T03:50:16.024Z,24.30
2022-08-26T03:54:17.263Z,24.30
2022-08-26T03:58:19.871Z,24.20
2022-08-26T04:02:21.101Z,24.30
2022-08-26T04:06:23.328Z,24.40
2022-08-26T04:10:28.620Z,24.40
2022-08-26T04:14:30.571Z,24.30
2022-08-26T04:18:37.081Z,24.40
2022-08-26T04:22:38.950Z,24.30
2022-08-26T04:26:43.874Z,24.20
2022-08-26T04:30:45.918Z,24.30
2022-08-26T04:34:47.211Z,24.20
2022-08-26T04:38:50.180Z,24.20
2022-08-26T04:42:53.471Z,24.10
2022-08-26T04:46:55.511Z,24.20
2022-08-26T04:50:59.199Z,24.30
2022-08-26T04:55:00.451Z,24.20
2022-08-26T04:59:03.686Z,24.30
2022-08-26T05:03:07.044Z,24.40
2022-08-26T05:07:10.165Z,24.40
2022-08-26T05:11:11.651Z,24.40
2022-08-26T05:15:12.946Z,24.10
2022-08-26T05:19:15.977Z,24.10
2022-08-26T05:23:22.112Z,24.10
2022-08-26T05:27:23.420Z,24.00
2022-08-26T05:31:28.687Z,24.10
2022-08-26T05:35:31.500Z,24.00
2022-08-26T05:39:33.069Z,24.10
2022-08-26T05:43:34.621Z,24.10
2022-08-26T05:47:36.704Z,24.20
2022-08-26T05:51:37.955Z,24.30
2022-08-26T05:55:45.046Z,24.30
2022-08-26T05:59:46.656Z,24.20
2022-08-26T06:03:51.212Z,24.20
2022-08-26T06:08:10.631Z,24.20
2022-08-26T06:12:12.385Z,24.00
2022-08-26T06:16:17.472Z,24.10
2022-08-26T06:20:18.652Z,24.10
2022-08-26T06:24:38.347Z,24.00
2022-08-26T06:28:39.755Z,24.10
2022-08-26T06:32:42.765Z,24.20
2022-08-26T06:36:44.387Z,24.40
2022-08-26T06:40:51.790Z,24.60
2022-08-26T06:44:53.143Z,24.50
2022-08-26T06:48:57.467Z,24.70
2022-08-26T06:52:58.751Z,25.00
2022-08-26T06:57:00.423Z,25.30
2022-08-26T07:01:09.059Z,25.30
2022-08-26T07:05:05.819Z,25.40
2022-08-26T07:09:10.155Z,25.70
2022-08-26T07:13:11.735Z,25.70
2022-08-26T07:17:14.045Z,25.80
2022-08-26T07:21:16.564Z,26.00
2022-08-26T07:25:19.623Z,26.50
2022-08-26T07:29:21.430Z,26.90
2022-08-26T07:33:24.458Z,27.00
2022-08-26T07:37:25.678Z,27.00
2022-08-26T07:41:26.877Z,27.40
2022-08-26T07:45:28.816Z,27.30
2022-08-26T07:49:30.497Z,27.40
2022-08-26T07:53:33.373Z,27.70
2022-08-26T07:57:35.201Z,27.80
2022-08-26T08:01:37.085Z,27.80
2022-08-26T08:05:41.440Z,27.80
2022-08-26T08:09:42.688Z,27.80
2022-08-26T08:13:43.952Z,27.90
2022-08-26T08:17:45.188Z,27.90
2022-08-26T08:21:46.482Z,28.30
2022-08-26T08:25:48.542Z,28.80
2022-08-26T08:29:50.259Z,29.00
2022-08-26T08:33:52.165Z,28.90
2022-08-26T08:37:54.889Z,28.90
2022-08-26T08:42:06.058Z,28.90
2022-08-26T08:46:13.370Z,28.90
2022-08-26T08:50:34.492Z,28.90
2022-08-26T08:54:35.910Z,28.70
2022-08-26T08:58:47.679Z,28.80
2022-08-26T09:02:58.462Z,29.00
2022-08-26T09:07:03.792Z,29.30
2022-08-26T09:11:05.396Z,29.40
2022-08-26T09:15:17.879Z,29.60
2022-08-26T09:19:28.818Z,29.60
2022-08-26T09:23:33.459Z,30.10
2022-08-26T09:27:50.424Z,30.60
2022-08-26T09:31:54.863Z,30.90
2022-08-26T09:36:18.127Z,31.50
2022-08-26T09:40:27.043Z,31.90
2022-08-26T09:44:28.682Z,32.20
2022-08-26T09:48:35.542Z,32.90
2022-08-26T09:52:37.710Z,33.30
2022-08-26T09:56:41.123Z,33.30
2022-08-26T10:00:57.092Z,33.40
2022-08-26T10:05:09.329Z,33.80
2022-08-26T10:09:09.797Z,34.00
2022-08-26T10:13:13.926Z,33.70
2022-08-26T10:17:31.580Z,33.70
2022-08-26T10:21:39.516Z,33.90
2022-08-26T10:25:57.974Z,33.70
2022-08-26T10:30:06.940Z,34.60
2022-08-26T10:34:10.166Z,34.70
2022-08-26T10:38:16.835Z,35.10
2022-08-26T10:42:31.663Z,34.70
2022-08-26T10:46:46.027Z,33.70
2022-08-26T10:50:48.040Z,32.60
2022-08-26T10:55:11.339Z,31.70
2022-08-26T10:59:35.501Z,31.20
2022-08-26T11:03:44.434Z,30.80
2022-08-26T11:07:49.728Z,30.40
2022-08-26T11:11:51.333Z,30.10
2022-08-26T11:15:57.944Z,29.90
2022-08-26T11:20:08.946Z,30.10
2022-08-26T11:24:05.688Z,30.00
2022-08-26T11:28:07.086Z,29.80
2022-08-26T11:32:24.376Z,29.80
2022-08-26T11:36:49.277Z,30.10
2022-08-26T11:41:06.868Z,30.10
2022-08-26T11:45:24.400Z,30.10
2022-08-26T11:49:28.339Z,30.00
2022-08-26T11:53:33.320Z,30.30
2022-08-26T11:57:47.650Z,30.10
2022-08-26T12:01:51.664Z,30.10
2022-08-26T12:05:53.838Z,30.00
2022-08-26T12:09:58.243Z,30.20
2022-08-26T12:14:04.569Z,30.40
2022-08-26T12:18:20.685Z,30.50
2022-08-26T12:22:35.282Z,30.60
2022-08-26T12:26:36.693Z,30.70
2022-08-26T12:30:37.988Z,30.70
2022-08-26T12:34:44.848Z,30.90
2022-08-26T12:38:46.509Z,30.90
2022-08-26T12:42:47.992Z,30.90
2022-08-26T12:46:49.949Z,31.40
2022-08-26T12:50:54.598Z,31.20
2022-08-26T12:55:05.700Z,31.20
2022-08-26T12:59:12.313Z,31.80
2022-08-26T13:03:37.576Z,31.90
2022-08-26T13:07:40.170Z,32.30
2022-08-26T13:11:45.274Z,32.60
2022-08-26T13:15:46.527Z,33.00
2022-08-26T13:19:48.033Z,32.80
2022-08-26T13:23:50.745Z,33.20
2022-08-26T13:27:52.407Z,33.20
2022-08-26T13:31:54.271Z,33.30
2022-08-26T13:35:55.560Z,33.50
2022-08-26T13:39:57.594Z,33.70
2022-08-26T13:43:59.510Z,33.90
2022-08-26T13:48:01.103Z,34.50
2022-08-26T13:52:03.267Z,34.70
2022-08-26T13:56:06.956Z,34.80
2022-08-26T14:00:10.987Z,34.40
2022-08-26T14:04:12.496Z,34.10
2022-08-26T14:08:13.916Z,34.00
2022-08-26T14:12:15.872Z,34.00
2022-08-26T14:16:30.956Z,33.70
2022-08-26T14:20:33.522Z,33.60
2022-08-26T14:24:34.666Z,33.40
2022-08-26T14:28:37.179Z,33.10
2022-08-26T14:32:41.928Z,32.90
2022-08-26T14:36:43.146Z,32.70
2022-08-26T14:40:44.487Z,31.50
2022-08-26T14:44:48.976Z,31.00
2022-08-26T14:48:50.219Z,30.10
2022-08-26T14:53:10.658Z,28.80
2022-08-26T14:57:13.448Z,27.90
2022-08-26T15:01:15.411Z,27.40
2022-08-26T15:05:17.371Z,27.50
2022-08-26T15:09:18.942Z,28.00
2022-08-26T15:13:20.242Z,28.20
2022-08-26T15:17:21.744Z,28.50
2022-08-26T15:21:23.807Z,28.70
2022-08-26T15:25:25.058Z,28.30
2022-08-26T15:29:26.417Z,28.40
2022-08-26T15:33:27.997Z,28.60
2022-08-26T15:37:29.283Z,28.80
2022-08-26T15:41:30.620Z,29.10
2022-08-26T15:45:33.615Z,29.20
2022-08-26T15:49:34.924Z,29.10
2022-08-26T15:53:36.195Z,29.10
2022-08-26T15:57:37.489Z,29.00
2022-08-26T16:01:39.159Z,29.00
2022-08-26T16:05:42.961Z,29.10
2022-08-26T16:09:44.648Z,29.20
2022-08-26T16:13:47.748Z,29.20
2022-08-26T16:17:49.021Z,29.10
2022-08-26T16:21:50.831Z,29.10
2022-08-26T16:25:52.838Z,29.00
2022-08-26T16:29:54.464Z,28.90
2022-08-26T16:33:55.811Z,28.70
2022-08-26T16:37:57.179Z,28.50
2022-08-26T16:41:58.526Z,28.20
2022-08-26T16:46:00.228Z,28.30
2022-08-26T16:50:03.823Z,28.20
2022-08-26T16:54:07.270Z,27.90
2022-08-26T16:58:08.746Z,27.80
2022-08-26T17:02:11.248Z,27.80
2022-08-26T17:06:12.900Z,27.70
2022-08-26T17:10:14.843Z,27.70
2022-08-26T17:14:16.340Z,27.60
2022-08-26T17:18:24.636Z,27.50
2022-08-26T17:22:28.073Z,27.50
2022-08-26T17:26:30.240Z,27.40
2022-08-26T17:30:31.590Z,27.20
2022-08-26T17:34:33.376Z,27.30
2022-08-26T17:38:36.287Z,27.30
2022-08-26T17:42:38.802Z,27.50
2022-08-26T17:46:40.211Z,27.40
2022-08-26T17:50:42.545Z,27.30
2022-08-26T17:54:43.827Z,27.20
2022-08-26T17:58:48.153Z,27.10
2022-08-26T18:02:48.614Z,27.10
2022-08-26T18:06:50.096Z,27.00
2022-08-26T18:10:51.556Z,27.10
2022-08-26T18:14:52.802Z,27.10
2022-08-26T18:18:54.542Z,27.10
2022-08-26T18:22:55.808Z,26.80
2022-08-26T18:26:57.494Z,26.90
2022-08-26T18:30:58.909Z,26.90
2022-08-26T18:35:00.569Z,27.00
2022-08-26T18:39:04.454Z,27.00
2022-08-26T18:43:05.687Z,27.00
2022-08-26T18:47:06.921Z,26.70
2022-08-26T18:51:10.422Z,26.40
2022-08-26T18:55:13.523Z,26.00
2022-08-26T18:59:15.149Z,26.00
2022-08-26T19:03:18.620Z,26.20
2022-08-26T19:07:19.968Z,26.20
2022-08-26T19:11:32.442Z,26.10
2022-08-26T19:15:24.319Z,25.90
2022-08-26T19:19:25.679Z,26.00
2022-08-26T19:23:31.916Z,26.00
2022-08-26T19:27:30.627Z,26.00
2022-08-26T19:31:32.814Z,25.80
2022-08-26T19:35:35.184Z,25.60
2022-08-26T19:39:36.792Z,25.50
2022-08-26T19:43:38.058Z,25.20
2022-08-26T19:47:39.532Z,25.30
2022-08-26T19:51:41.034Z,25.20
2022-08-26T19:55:42.288Z,25.40
2022-08-26T19:59:43.873Z,25.40
2022-08-26T20:03:45.793Z,25.30
2022-08-26T20:07:48.218Z,25.30
2022-08-26T20:11:49.501Z,25.30
2022-08-26T20:15:50.971Z,25.30
2022-08-26T20:20:28.393Z,25.30
2022-08-26T20:24:17.345Z,25.30
2022-08-26T20:28:18.637Z,25.30
2022-08-26T20:32:20.617Z,25.20
2022-08-26T20:36:26.169Z,25.20
2022-08-26T20:40:28.423Z,25.20
2022-08-26T20:44:29.924Z,25.20
2022-08-26T20:48:31.152Z,25.20
2022-08-26T20:52:32.869Z,25.00
2022-08-26T20:56:35.365Z,25.10
2022-08-26T21:00:37.499Z,24.90
2022-08-26T21:04:39.750Z,24.90
2022-08-26T21:08:43.237Z,24.90
2022-08-26T21:12:44.233Z,25.00
2022-08-26T21:16:46.293Z,25.20
2022-08-26T21:20:47.614Z,25.30
2022-08-26T21:24:48.942Z,25.40
2022-08-26T21:28:50.588Z,25.40
2022-08-26T21:32:51.885Z,25.30
2022-08-26T21:36:53.864Z,25.30
2022-08-26T21:41:04.471Z,25.20
2022-08-26T21:45:07.169Z,25.20
2022-08-26T21:49:11.648Z,25.30
2022-08-26T21:53:14.829Z,25.40
2022-08-26T21:57:16.629Z,25.40
2022-08-26T22:01:21.049Z,25.40
2022-08-26T22:05:22.431Z,25.50
2022-08-26T22:09:26.540Z,25.40
2022-08-26T22:13:31.181Z,25.20
2022-08-26T22:17:32.442Z,25.20
2022-08-26T22:21:34.966Z,25.10
2022-08-26T22:25:36.448Z,25.10
2022-08-26T22:29:37.933Z,25.10
2022-08-26T22:33:41.705Z,25.00
2022-08-26T22:37:43.361Z,25.00
2022-08-26T22:41:47.692Z,24.90
2022-08-26T22:45:49.576Z,24.70
2022-08-26T22:49:50.798Z,24.40
2022-08-26T22:53:52.107Z,24.40
2022-08-26T22:57:53.403Z,24.40
2022-08-26T23:01:55.425Z,24.50
2022-08-26T23:05:56.957Z,24.40
2022-08-26T23:09:58.188Z,24.40
2022-08-26T23:14:01.289Z,24.40
2022-08-26T23:18:05.040Z,24.40
2022-08-26T23:22:06.447Z,24.40
2022-08-26T23:26:08.059Z,24.40
2022-08-26T23:30:13.358Z,24.30
2022-08-26T23:34:33.001Z,24.30
2022-08-26T23:38:34.271Z,24.20
2022-08-26T23:42:36.442Z,24.20
2022-08-26T23:46:37.926Z,24.10
2022-08-26T23:50:57.770Z,24.10
2022-08-26T23:54:59.242Z,24.00
2022-08-26T23:59:00.464Z,23.90
